sensor_id;sensor_type;location;lat;lon;timestamp;P1;durP1;ratioP1;P2;durP2;ratioP2
1839;SDS011;920;48.944;9.148;2023-08-06T00:00:21;3.23;;;2.80;;
1839;SDS011;920;48.944;9.148;2023-08-06T00:02:48;2.93;;;2.60;;
1839;SDS011;920;48.944;9.148;2023-08-06T00:05:14;2.67;;;2.37;;
1839;SDS011;920;48.944;9.148;2023-08-06T00:07:44;3.90;;;2.87;;
1839;SDS011;920;48.944;9.148;2023-08-06T00:10:11;3.47;;;2.53;;
1839;SDS011;920;48.944;9.148;2023-08-06T00:12:38;3.20;;;2.90;;
1839;SDS011;920;48.944;9.148;2023-08-06T00:15:05;4.13;;;2.40;;
1839;SDS011;920;48.944;9.148;2023-08-06T00:17:33;3.70;;;2.67;;
1839;SDS011;920;48.944;9.148;2023-08-06T00:20:00;3.90;;;2.87;;
1839;SDS011;920;48.944;9.148;2023-08-06T00:22:30;3.23;;;2.53;;
1839;SDS011;920;48.944;9.148;2023-08-06T00:24:58;2.60;;;2.13;;
1839;SDS011;920;48.944;9.148;2023-08-06T00:27:25;3.17;;;2.50;;
1839;SDS011;920;48.944;9.148;2023-08-06T00:29:51;3.53;;;3.23;;
1839;SDS011;920;48.944;9.148;2023-08-06T00:32:18;3.50;;;2.50;;
1839;SDS011;920;48.944;9.148;2023-08-06T00:34:45;3.00;;;2.70;;
1839;SDS011;920;48.944;9.148;2023-08-06T00:37:14;2.97;;;2.30;;
1839;SDS011;920;48.944;9.148;2023-08-06T00:39:41;3.30;;;2.43;;
1839;SDS011;920;48.944;9.148;2023-08-06T00:42:10;3.77;;;2.90;;
1839;SDS011;920;48.944;9.148;2023-08-06T00:44:37;3.63;;;3.03;;
1839;SDS011;920;48.944;9.148;2023-08-06T00:47:05;3.07;;;2.60;;
1839;SDS011;920;48.944;9.148;2023-08-06T00:49:32;3.10;;;2.80;;
1839;SDS011;920;48.944;9.148;2023-08-06T00:51:59;3.50;;;2.70;;
1839;SDS011;920;48.944;9.148;2023-08-06T00:54:26;3.27;;;2.83;;
1839;SDS011;920;48.944;9.148;2023-08-06T00:56:54;4.40;;;3.00;;
1839;SDS011;920;48.944;9.148;2023-08-06T00:59:25;4.60;;;2.80;;
1839;SDS011;920;48.944;9.148;2023-08-06T01:01:51;4.00;;;3.00;;
1839;SDS011;920;48.944;9.148;2023-08-06T01:04:19;3.30;;;2.90;;
1839;SDS011;920;48.944;9.148;2023-08-06T01:06:47;3.60;;;3.13;;
1839;SDS011;920;48.944;9.148;2023-08-06T01:09:19;4.53;;;3.50;;
1839;SDS011;920;48.944;9.148;2023-08-06T01:11:54;3.63;;;3.00;;
1839;SDS011;920;48.944;9.148;2023-08-06T01:14:28;3.50;;;3.13;;
1839;SDS011;920;48.944;9.148;2023-08-06T01:16:59;4.93;;;2.83;;
1839;SDS011;920;48.944;9.148;2023-08-06T01:19:27;3.30;;;3.00;;
1839;SDS011;920;48.944;9.148;2023-08-06T01:21:55;3.13;;;2.83;;
1839;SDS011;920;48.944;9.148;2023-08-06T01:24:21;3.30;;;2.90;;
1839;SDS011;920;48.944;9.148;2023-08-06T01:26:51;4.23;;;3.40;;
1839;SDS011;920;48.944;9.148;2023-08-06T01:29:25;3.43;;;2.87;;
1839;SDS011;920;48.944;9.148;2023-08-06T01:31:56;4.20;;;3.40;;
1839;SDS011;920;48.944;9.148;2023-08-06T01:34:24;4.20;;;3.23;;
1839;SDS011;920;48.944;9.148;2023-08-06T01:36:52;8.83;;;3.77;;
1839;SDS011;920;48.944;9.148;2023-08-06T01:39:20;3.43;;;3.13;;
1839;SDS011;920;48.944;9.148;2023-08-06T01:41:47;4.80;;;3.73;;
1839;SDS011;920;48.944;9.148;2023-08-06T01:44:14;5.00;;;2.70;;
1839;SDS011;920;48.944;9.148;2023-08-06T01:46:41;5.03;;;2.63;;
1839;SDS011;920;48.944;9.148;2023-08-06T01:49:08;2.57;;;2.27;;
1839;SDS011;920;48.944;9.148;2023-08-06T01:51:34;4.00;;;2.90;;
1839;SDS011;920;48.944;9.148;2023-08-06T01:54:01;3.40;;;2.80;;
1839;SDS011;920;48.944;9.148;2023-08-06T01:56:30;3.90;;;3.00;;
1839;SDS011;920;48.944;9.148;2023-08-06T01:58:57;3.73;;;2.70;;
1839;SDS011;920;48.944;9.148;2023-08-06T02:01:24;3.60;;;2.47;;
1839;SDS011;920;48.944;9.148;2023-08-06T02:03:50;3.27;;;2.80;;
1839;SDS011;920;48.944;9.148;2023-08-06T02:06:17;3.40;;;2.90;;
1839;SDS011;920;48.944;9.148;2023-08-06T02:08:44;3.37;;;3.03;;
1839;SDS011;920;48.944;9.148;2023-08-06T02:11:11;3.47;;;2.87;;
1839;SDS011;920;48.944;9.148;2023-08-06T02:13:39;4.50;;;3.07;;
1839;SDS011;920;48.944;9.148;2023-08-06T02:16:06;3.13;;;2.77;;
1839;SDS011;920;48.944;9.148;2023-08-06T02:18:35;3.00;;;2.53;;
1839;SDS011;920;48.944;9.148;2023-08-06T02:21:01;3.23;;;2.93;;
1839;SDS011;920;48.944;9.148;2023-08-06T02:23:28;3.30;;;2.60;;
1839;SDS011;920;48.944;9.148;2023-08-06T02:25:58;2.97;;;2.67;;
1839;SDS011;920;48.944;9.148;2023-08-06T02:28:27;2.50;;;2.30;;
1839;SDS011;920;48.944;9.148;2023-08-06T02:30:55;3.10;;;2.60;;
1839;SDS011;920;48.944;9.148;2023-08-06T02:33:22;3.30;;;1.90;;
1839;SDS011;920;48.944;9.148;2023-08-06T02:35:48;2.20;;;1.80;;
1839;SDS011;920;48.944;9.148;2023-08-06T02:38:15;2.60;;;2.00;;
1839;SDS011;920;48.944;9.148;2023-08-06T02:40:43;3.40;;;2.57;;
1839;SDS011;920;48.944;9.148;2023-08-06T02:43:10;3.70;;;2.20;;
1839;SDS011;920;48.944;9.148;2023-08-06T02:45:37;2.30;;;1.87;;
1839;SDS011;920;48.944;9.148;2023-08-06T02:48:06;2.57;;;2.00;;
1839;SDS011;920;48.944;9.148;2023-08-06T02:50:37;3.37;;;1.90;;
1839;SDS011;920;48.944;9.148;2023-08-06T02:53:05;3.17;;;2.20;;
1839;SDS011;920;48.944;9.148;2023-08-06T02:55:32;2.30;;;2.00;;
1839;SDS011;920;48.944;9.148;2023-08-06T02:58:00;3.40;;;2.10;;
1839;SDS011;920;48.944;9.148;2023-08-06T03:00:30;3.23;;;1.90;;
1839;SDS011;920;48.944;9.148;2023-08-06T03:02:57;2.80;;;2.20;;
1839;SDS011;920;48.944;9.148;2023-08-06T03:05:52;2.70;;;1.50;;
1839;SDS011;920;48.944;9.148;2023-08-06T03:08:25;2.20;;;1.70;;
1839;SDS011;920;48.944;9.148;2023-08-06T03:10:52;2.40;;;1.60;;
1839;SDS011;920;48.944;9.148;2023-08-06T03:13:19;2.40;;;1.60;;
1839;SDS011;920;48.944;9.148;2023-08-06T03:15:52;3.00;;;2.07;;
1839;SDS011;920;48.944;9.148;2023-08-06T03:18:20;2.60;;;1.90;;
1839;SDS011;920;48.944;9.148;2023-08-06T03:20:48;2.80;;;1.90;;
1839;SDS011;920;48.944;9.148;2023-08-06T03:23:18;2.80;;;1.70;;
1839;SDS011;920;48.944;9.148;2023-08-06T03:25:45;3.93;;;2.43;;
1839;SDS011;920;48.944;9.148;2023-08-06T03:28:13;2.37;;;1.63;;
1839;SDS011;920;48.944;9.148;2023-08-06T03:30:40;3.87;;;2.20;;
1839;SDS011;920;48.944;9.148;2023-08-06T03:33:09;2.63;;;2.10;;
1839;SDS011;920;48.944;9.148;2023-08-06T03:35:36;2.50;;;1.70;;
1839;SDS011;920;48.944;9.148;2023-08-06T03:38:03;2.80;;;2.10;;
1839;SDS011;920;48.944;9.148;2023-08-06T03:40:31;2.00;;;1.63;;
1839;SDS011;920;48.944;9.148;2023-08-06T03:42:58;3.47;;;2.40;;
1839;SDS011;920;48.944;9.148;2023-08-06T03:45:25;2.83;;;1.80;;
1839;SDS011;920;48.944;9.148;2023-08-06T03:47:52;2.60;;;1.80;;
1839;SDS011;920;48.944;9.148;2023-08-06T03:50:19;3.13;;;1.70;;
1839;SDS011;920;48.944;9.148;2023-08-06T03:52:46;2.50;;;1.90;;
1839;SDS011;920;48.944;9.148;2023-08-06T03:55:12;3.03;;;2.20;;
1839;SDS011;920;48.944;9.148;2023-08-06T03:57:40;5.13;;;2.90;;
1839;SDS011;920;48.944;9.148;2023-08-06T04:00:08;3.50;;;2.10;;
1839;SDS011;920;48.944;9.148;2023-08-06T04:02:41;2.60;;;1.80;;
1839;SDS011;920;48.944;9.148;2023-08-06T04:05:10;4.10;;;2.00;;
1839;SDS011;920;48.944;9.148;2023-08-06T04:07:38;2.80;;;2.00;;
1839;SDS011;920;48.944;9.148;2023-08-06T04:10:04;2.80;;;1.90;;
1839;SDS011;920;48.944;9.148;2023-08-06T04:12:31;3.37;;;2.10;;
1839;SDS011;920;48.944;9.148;2023-08-06T04:15:04;2.50;;;1.63;;
1839;SDS011;920;48.944;9.148;2023-08-06T04:17:31;2.40;;;1.90;;
1839;SDS011;920;48.944;9.148;2023-08-06T04:19:58;2.77;;;1.90;;
1839;SDS011;920;48.944;9.148;2023-08-06T04:22:25;2.90;;;1.77;;
1839;SDS011;920;48.944;9.148;2023-08-06T04:24:52;2.70;;;1.87;;
1839;SDS011;920;48.944;9.148;2023-08-06T04:27:19;2.63;;;2.00;;
1839;SDS011;920;48.944;9.148;2023-08-06T04:29:47;3.10;;;2.20;;
1839;SDS011;920;48.944;9.148;2023-08-06T04:32:16;2.80;;;2.00;;
1839;SDS011;920;48.944;9.148;2023-08-06T04:34:47;2.60;;;2.00;;
1839;SDS011;920;48.944;9.148;2023-08-06T04:37:15;3.33;;;1.90;;
1839;SDS011;920;48.944;9.148;2023-08-06T04:39:42;3.80;;;1.73;;
1839;SDS011;920;48.944;9.148;2023-08-06T04:42:09;3.20;;;1.97;;
1839;SDS011;920;48.944;9.148;2023-08-06T04:44:36;2.67;;;1.90;;
1839;SDS011;920;48.944;9.148;2023-08-06T04:47:03;2.43;;;1.60;;
1839;SDS011;920;48.944;9.148;2023-08-06T04:49:31;2.57;;;1.47;;
1839;SDS011;920;48.944;9.148;2023-08-06T04:51:58;4.07;;;1.50;;
1839;SDS011;920;48.944;9.148;2023-08-06T04:54:25;3.70;;;1.50;;
1839;SDS011;920;48.944;9.148;2023-08-06T04:56:51;3.83;;;2.07;;
1839;SDS011;920;48.944;9.148;2023-08-06T04:59:18;2.43;;;1.30;;
1839;SDS011;920;48.944;9.148;2023-08-06T05:01:45;1.87;;;1.30;;
1839;SDS011;920;48.944;9.148;2023-08-06T05:04:12;2.47;;;1.30;;
1839;SDS011;920;48.944;9.148;2023-08-06T05:06:40;2.10;;;1.23;;
1839;SDS011;920;48.944;9.148;2023-08-06T05:09:06;2.00;;;1.20;;
1839;SDS011;920;48.944;9.148;2023-08-06T05:11:33;2.50;;;1.03;;
1839;SDS011;920;48.944;9.148;2023-08-06T05:14:00;1.40;;;0.83;;
1839;SDS011;920;48.944;9.148;2023-08-06T05:16:27;2.00;;;1.07;;
1839;SDS011;920;48.944;9.148;2023-08-06T05:18:54;1.90;;;1.00;;
1839;SDS011;920;48.944;9.148;2023-08-06T05:21:20;2.13;;;0.80;;
1839;SDS011;920;48.944;9.148;2023-08-06T05:23:50;2.37;;;1.03;;
1839;SDS011;920;48.944;9.148;2023-08-06T05:26:16;1.93;;;1.00;;
1839;SDS011;920;48.944;9.148;2023-08-06T05:28:44;3.73;;;1.20;;
1839;SDS011;920;48.944;9.148;2023-08-06T05:31:11;2.23;;;1.10;;
1839;SDS011;920;48.944;9.148;2023-08-06T05:33:38;2.87;;;1.00;;
1839;SDS011;920;48.944;9.148;2023-08-06T05:36:04;2.00;;;1.03;;
1839;SDS011;920;48.944;9.148;2023-08-06T05:38:31;2.07;;;1.00;;
1839;SDS011;920;48.944;9.148;2023-08-06T05:40:59;1.90;;;0.97;;
1839;SDS011;920;48.944;9.148;2023-08-06T05:43:26;1.70;;;1.00;;
1839;SDS011;920;48.944;9.148;2023-08-06T05:45:53;1.93;;;1.00;;
1839;SDS011;920;48.944;9.148;2023-08-06T05:48:19;2.83;;;1.00;;
1839;SDS011;920;48.944;9.148;2023-08-06T05:50:47;1.80;;;1.00;;
1839;SDS011;920;48.944;9.148;2023-08-06T05:53:14;1.80;;;1.00;;
1839;SDS011;920;48.944;9.148;2023-08-06T05:55:41;1.70;;;0.80;;
1839;SDS011;920;48.944;9.148;2023-08-06T05:58:09;1.77;;;0.93;;
1839;SDS011;920;48.944;9.148;2023-08-06T06:00:36;1.60;;;0.73;;
1839;SDS011;920;48.944;9.148;2023-08-06T06:03:02;1.90;;;0.80;;
1839;SDS011;920;48.944;9.148;2023-08-06T06:05:29;2.10;;;0.93;;
1839;SDS011;920;48.944;9.148;2023-08-06T06:07:56;2.37;;;0.90;;
1839;SDS011;920;48.944;9.148;2023-08-06T06:10:23;2.20;;;1.00;;
1839;SDS011;920;48.944;9.148;2023-08-06T06:12:49;3.40;;;0.90;;
1839;SDS011;920;48.944;9.148;2023-08-06T06:15:17;1.83;;;0.70;;
1839;SDS011;920;48.944;9.148;2023-08-06T06:17:44;1.63;;;0.70;;
1839;SDS011;920;48.944;9.148;2023-08-06T06:20:11;2.03;;;0.77;;
1839;SDS011;920;48.944;9.148;2023-08-06T06:22:38;2.53;;;0.90;;
1839;SDS011;920;48.944;9.148;2023-08-06T06:25:06;2.03;;;0.80;;
1839;SDS011;920;48.944;9.148;2023-08-06T06:27:33;1.47;;;0.80;;
1839;SDS011;920;48.944;9.148;2023-08-06T06:30:00;1.60;;;0.70;;
1839;SDS011;920;48.944;9.148;2023-08-06T06:32:28;1.70;;;0.80;;
1839;SDS011;920;48.944;9.148;2023-08-06T06:34:55;2.17;;;1.10;;
1839;SDS011;920;48.944;9.148;2023-08-06T06:37:21;2.10;;;1.10;;
1839;SDS011;920;48.944;9.148;2023-08-06T06:39:48;2.07;;;1.07;;
1839;SDS011;920;48.944;9.148;2023-08-06T06:42:15;1.80;;;0.90;;
1839;SDS011;920;48.944;9.148;2023-08-06T06:44:45;1.70;;;0.80;;
1839;SDS011;920;48.944;9.148;2023-08-06T06:47:12;3.40;;;0.70;;
1839;SDS011;920;48.944;9.148;2023-08-06T06:49:40;1.60;;;0.80;;
1839;SDS011;920;48.944;9.148;2023-08-06T06:52:07;1.93;;;0.90;;
1839;SDS011;920;48.944;9.148;2023-08-06T06:54:34;2.17;;;1.03;;
1839;SDS011;920;48.944;9.148;2023-08-06T06:57:00;3.30;;;1.30;;
1839;SDS011;920;48.944;9.148;2023-08-06T06:59:27;2.30;;;0.90;;
1839;SDS011;920;48.944;9.148;2023-08-06T07:01:54;1.50;;;0.80;;
1839;SDS011;920;48.944;9.148;2023-08-06T07:04:21;2.60;;;1.27;;
1839;SDS011;920;48.944;9.148;2023-08-06T07:06:49;1.60;;;0.63;;
1839;SDS011;920;48.944;9.148;2023-08-06T07:09:17;1.80;;;0.80;;
1839;SDS011;920;48.944;9.148;2023-08-06T07:11:43;1.80;;;0.73;;
1839;SDS011;920;48.944;9.148;2023-08-06T07:14:10;1.90;;;0.80;;
1839;SDS011;920;48.944;9.148;2023-08-06T07:16:37;2.23;;;0.80;;
1839;SDS011;920;48.944;9.148;2023-08-06T07:19:04;1.37;;;0.60;;
1839;SDS011;920;48.944;9.148;2023-08-06T07:21:31;1.37;;;0.60;;
1839;SDS011;920;48.944;9.148;2023-08-06T07:23:59;2.10;;;0.70;;
1839;SDS011;920;48.944;9.148;2023-08-06T07:26:25;1.50;;;0.63;;
1839;SDS011;920;48.944;9.148;2023-08-06T07:28:52;2.03;;;0.70;;
1839;SDS011;920;48.944;9.148;2023-08-06T07:31:19;1.43;;;0.60;;
1839;SDS011;920;48.944;9.148;2023-08-06T07:33:46;1.67;;;0.73;;
1839;SDS011;920;48.944;9.148;2023-08-06T07:36:13;1.63;;;0.60;;
1839;SDS011;920;48.944;9.148;2023-08-06T07:38:40;1.50;;;0.50;;
1839;SDS011;920;48.944;9.148;2023-08-06T07:41:08;1.30;;;0.50;;
1839;SDS011;920;48.944;9.148;2023-08-06T07:43:35;2.10;;;0.70;;
1839;SDS011;920;48.944;9.148;2023-08-06T07:46:02;1.67;;;0.73;;
1839;SDS011;920;48.944;9.148;2023-08-06T07:48:29;1.60;;;0.60;;
1839;SDS011;920;48.944;9.148;2023-08-06T07:50:55;1.43;;;0.50;;
1839;SDS011;920;48.944;9.148;2023-08-06T07:53:22;1.50;;;0.60;;
1839;SDS011;920;48.944;9.148;2023-08-06T07:55:52;3.30;;;0.70;;
1839;SDS011;920;48.944;9.148;2023-08-06T07:58:20;1.40;;;0.53;;
1839;SDS011;920;48.944;9.148;2023-08-06T08:00:48;1.30;;;0.40;;
1839;SDS011;920;48.944;9.148;2023-08-06T08:03:15;1.30;;;0.50;;
1839;SDS011;920;48.944;9.148;2023-08-06T08:05:42;1.30;;;0.50;;
1839;SDS011;920;48.944;9.148;2023-08-06T08:08:10;1.20;;;0.50;;
1839;SDS011;920;48.944;9.148;2023-08-06T08:10:37;1.30;;;0.50;;
1839;SDS011;920;48.944;9.148;2023-08-06T08:13:04;1.53;;;0.70;;
1839;SDS011;920;48.944;9.148;2023-08-06T08:15:32;1.40;;;0.50;;
1839;SDS011;920;48.944;9.148;2023-08-06T08:18:01;1.20;;;0.50;;
1839;SDS011;920;48.944;9.148;2023-08-06T08:20:27;2.93;;;1.17;;
1839;SDS011;920;48.944;9.148;2023-08-06T08:22:57;1.90;;;0.70;;
1839;SDS011;920;48.944;9.148;2023-08-06T08:25:25;1.50;;;0.60;;
1839;SDS011;920;48.944;9.148;2023-08-06T08:27:52;1.70;;;0.60;;
1839;SDS011;920;48.944;9.148;2023-08-06T08:30:19;1.40;;;0.50;;
1839;SDS011;920;48.944;9.148;2023-08-06T08:32:47;1.30;;;0.40;;
1839;SDS011;920;48.944;9.148;2023-08-06T08:35:14;1.30;;;0.50;;
1839;SDS011;920;48.944;9.148;2023-08-06T08:37:41;1.40;;;0.50;;
1839;SDS011;920;48.944;9.148;2023-08-06T08:40:08;1.20;;;0.50;;
1839;SDS011;920;48.944;9.148;2023-08-06T08:42:35;1.20;;;0.40;;
1839;SDS011;920;48.944;9.148;2023-08-06T08:45:02;1.60;;;0.40;;
1839;SDS011;920;48.944;9.148;2023-08-06T08:47:31;2.53;;;0.60;;
1839;SDS011;920;48.944;9.148;2023-08-06T08:49:59;1.60;;;0.50;;
1839;SDS011;920;48.944;9.148;2023-08-06T08:52:27;1.40;;;0.50;;
1839;SDS011;920;48.944;9.148;2023-08-06T08:54:55;1.20;;;0.50;;
1839;SDS011;920;48.944;9.148;2023-08-06T08:57:22;1.20;;;0.40;;
1839;SDS011;920;48.944;9.148;2023-08-06T08:59:49;1.30;;;0.50;;
1839;SDS011;920;48.944;9.148;2023-08-06T09:02:16;1.30;;;0.40;;
1839;SDS011;920;48.944;9.148;2023-08-06T09:04:43;2.00;;;0.50;;
1839;SDS011;920;48.944;9.148;2023-08-06T09:07:13;2.13;;;0.50;;
1839;SDS011;920;48.944;9.148;2023-08-06T09:09:42;1.23;;;0.40;;
1839;SDS011;920;48.944;9.148;2023-08-06T09:12:10;1.30;;;0.50;;
1839;SDS011;920;48.944;9.148;2023-08-06T09:14:41;1.20;;;0.40;;
1839;SDS011;920;48.944;9.148;2023-08-06T09:17:08;1.30;;;0.40;;
1839;SDS011;920;48.944;9.148;2023-08-06T09:19:36;1.20;;;0.50;;
1839;SDS011;920;48.944;9.148;2023-08-06T09:22:03;1.33;;;0.40;;
1839;SDS011;920;48.944;9.148;2023-08-06T09:24:39;1.27;;;0.50;;
1839;SDS011;920;48.944;9.148;2023-08-06T09:27:10;1.30;;;0.50;;
1839;SDS011;920;48.944;9.148;2023-08-06T09:29:39;1.20;;;0.40;;
1839;SDS011;920;48.944;9.148;2023-08-06T09:32:06;1.20;;;0.40;;
1839;SDS011;920;48.944;9.148;2023-08-06T09:34:33;1.40;;;0.50;;
1839;SDS011;920;48.944;9.148;2023-08-06T09:37:00;1.30;;;0.50;;
1839;SDS011;920;48.944;9.148;2023-08-06T09:39:27;1.20;;;0.40;;
1839;SDS011;920;48.944;9.148;2023-08-06T09:41:57;1.20;;;0.40;;
1839;SDS011;920;48.944;9.148;2023-08-06T09:44:26;1.40;;;0.50;;
1839;SDS011;920;48.944;9.148;2023-08-06T09:46:53;1.40;;;0.50;;
1839;SDS011;920;48.944;9.148;2023-08-06T09:49:21;1.30;;;0.50;;
1839;SDS011;920;48.944;9.148;2023-08-06T09:51:51;1.20;;;0.40;;
1839;SDS011;920;48.944;9.148;2023-08-06T09:54:20;1.20;;;0.40;;
1839;SDS011;920;48.944;9.148;2023-08-06T09:56:48;1.20;;;0.40;;
1839;SDS011;920;48.944;9.148;2023-08-06T09:59:16;1.40;;;0.53;;
1839;SDS011;920;48.944;9.148;2023-08-06T10:01:43;1.40;;;0.40;;
1839;SDS011;920;48.944;9.148;2023-08-06T10:04:12;1.20;;;0.40;;
1839;SDS011;920;48.944;9.148;2023-08-06T10:06:41;1.40;;;0.43;;
1839;SDS011;920;48.944;9.148;2023-08-06T10:09:09;1.20;;;0.40;;
1839;SDS011;920;48.944;9.148;2023-08-06T10:11:36;1.10;;;0.40;;
1839;SDS011;920;48.944;9.148;2023-08-06T10:14:04;1.23;;;0.40;;
1839;SDS011;920;48.944;9.148;2023-08-06T10:16:34;1.10;;;0.40;;
1839;SDS011;920;48.944;9.148;2023-08-06T10:19:01;1.30;;;0.40;;
1839;SDS011;920;48.944;9.148;2023-08-06T10:21:30;1.20;;;0.40;;
1839;SDS011;920;48.944;9.148;2023-08-06T10:23:57;1.20;;;0.40;;
1839;SDS011;920;48.944;9.148;2023-08-06T10:26:27;1.50;;;0.50;;
1839;SDS011;920;48.944;9.148;2023-08-06T10:28:54;1.17;;;0.40;;
1839;SDS011;920;48.944;9.148;2023-08-06T10:34:25;1.30;;;0.50;;
1839;SDS011;920;48.944;9.148;2023-08-06T10:36:54;1.10;;;0.40;;
1839;SDS011;920;48.944;9.148;2023-08-06T10:39:20;1.30;;;0.50;;
1839;SDS011;920;48.944;9.148;2023-08-06T10:41:47;1.20;;;0.40;;
1839;SDS011;920;48.944;9.148;2023-08-06T10:44:14;1.20;;;0.40;;
1839;SDS011;920;48.944;9.148;2023-08-06T10:46:41;1.20;;;0.40;;
1839;SDS011;920;48.944;9.148;2023-08-06T10:49:09;1.27;;;0.50;;
1839;SDS011;920;48.944;9.148;2023-08-06T10:51:37;1.40;;;0.57;;
1839;SDS011;920;48.944;9.148;2023-08-06T10:54:04;1.40;;;0.50;;
1839;SDS011;920;48.944;9.148;2023-08-06T10:56:31;1.80;;;0.70;;
1839;SDS011;920;48.944;9.148;2023-08-06T10:59:06;1.30;;;0.50;;
1839;SDS011;920;48.944;9.148;2023-08-06T11:01:35;2.13;;;0.70;;
1839;SDS011;920;48.944;9.148;2023-08-06T11:04:02;2.97;;;0.73;;
1839;SDS011;920;48.944;9.148;2023-08-06T11:06:31;1.60;;;0.70;;
1839;SDS011;920;48.944;9.148;2023-08-06T11:08:58;1.40;;;0.70;;
1839;SDS011;920;48.944;9.148;2023-08-06T11:11:25;1.40;;;0.80;;
1839;SDS011;920;48.944;9.148;2023-08-06T11:13:52;1.73;;;0.80;;
1839;SDS011;920;48.944;9.148;2023-08-06T11:16:19;3.07;;;0.97;;
1839;SDS011;920;48.944;9.148;2023-08-06T11:18:46;1.80;;;1.00;;
1839;SDS011;920;48.944;9.148;2023-08-06T11:21:13;2.40;;;1.70;;
1839;SDS011;920;48.944;9.148;2023-08-06T11:23:41;2.50;;;1.20;;
1839;SDS011;920;48.944;9.148;2023-08-06T11:26:08;1.70;;;1.03;;
1839;SDS011;920;48.944;9.148;2023-08-06T11:28:35;1.87;;;1.00;;
1839;SDS011;920;48.944;9.148;2023-08-06T11:31:02;2.20;;;1.00;;
1839;SDS011;920;48.944;9.148;2023-08-06T11:33:29;1.70;;;1.10;;
1839;SDS011;920;48.944;9.148;2023-08-06T11:35:56;1.80;;;0.90;;
1839;SDS011;920;48.944;9.148;2023-08-06T11:38:24;2.00;;;1.07;;
1839;SDS011;920;48.944;9.148;2023-08-06T11:40:53;1.60;;;0.80;;
1839;SDS011;920;48.944;9.148;2023-08-06T11:43:20;1.83;;;1.10;;
1839;SDS011;920;48.944;9.148;2023-08-06T11:45:48;2.20;;;1.13;;
1839;SDS011;920;48.944;9.148;2023-08-06T11:48:15;3.13;;;1.20;;
1839;SDS011;920;48.944;9.148;2023-08-06T11:50:43;2.57;;;1.20;;
1839;SDS011;920;48.944;9.148;2023-08-06T11:53:11;3.53;;;1.40;;
1839;SDS011;920;48.944;9.148;2023-08-06T11:55:39;2.00;;;1.23;;
1839;SDS011;920;48.944;9.148;2023-08-06T11:58:09;3.30;;;1.30;;
1839;SDS011;920;48.944;9.148;2023-08-06T12:00:36;2.33;;;1.27;;
1839;SDS011;920;48.944;9.148;2023-08-06T12:03:04;2.00;;;1.20;;
1839;SDS011;920;48.944;9.148;2023-08-06T12:05:31;2.87;;;1.80;;
1839;SDS011;920;48.944;9.148;2023-08-06T12:07:59;2.10;;;1.60;;
1839;SDS011;920;48.944;9.148;2023-08-06T12:10:27;2.00;;;1.20;;
1839;SDS011;920;48.944;9.148;2023-08-06T12:12:55;2.40;;;1.60;;
1839;SDS011;920;48.944;9.148;2023-08-06T12:15:23;3.73;;;1.80;;
1839;SDS011;920;48.944;9.148;2023-08-06T12:17:50;3.53;;;1.80;;
1839;SDS011;920;48.944;9.148;2023-08-06T12:20:17;4.30;;;2.53;;
1839;SDS011;920;48.944;9.148;2023-08-06T12:22:44;3.10;;;1.90;;
1839;SDS011;920;48.944;9.148;2023-08-06T12:25:11;2.47;;;1.83;;
1839;SDS011;920;48.944;9.148;2023-08-06T12:27:39;3.83;;;2.63;;
1839;SDS011;920;48.944;9.148;2023-08-06T12:30:06;3.07;;;1.90;;
1839;SDS011;920;48.944;9.148;2023-08-06T12:32:35;2.33;;;1.53;;
1839;SDS011;920;48.944;9.148;2023-08-06T12:35:02;2.87;;;1.87;;
1839;SDS011;920;48.944;9.148;2023-08-06T12:37:30;3.97;;;1.97;;
1839;SDS011;920;48.944;9.148;2023-08-06T12:39:56;3.60;;;2.00;;
1839;SDS011;920;48.944;9.148;2023-08-06T12:42:23;4.10;;;2.07;;
1839;SDS011;920;48.944;9.148;2023-08-06T12:44:50;3.70;;;2.07;;
1839;SDS011;920;48.944;9.148;2023-08-06T12:47:17;3.90;;;1.97;;
1839;SDS011;920;48.944;9.148;2023-08-06T12:49:46;3.03;;;1.80;;
1839;SDS011;920;48.944;9.148;2023-08-06T12:52:13;3.47;;;1.73;;
1839;SDS011;920;48.944;9.148;2023-08-06T12:54:40;4.70;;;1.77;;
1839;SDS011;920;48.944;9.148;2023-08-06T12:57:07;2.73;;;1.50;;
1839;SDS011;920;48.944;9.148;2023-08-06T12:59:34;2.90;;;1.90;;
1839;SDS011;920;48.944;9.148;2023-08-06T13:02:01;2.77;;;1.40;;
1839;SDS011;920;48.944;9.148;2023-08-06T13:04:28;2.23;;;1.37;;
1839;SDS011;920;48.944;9.148;2023-08-06T13:06:57;3.03;;;1.70;;
1839;SDS011;920;48.944;9.148;2023-08-06T13:09:23;2.37;;;1.43;;
1839;SDS011;920;48.944;9.148;2023-08-06T13:11:51;2.40;;;1.40;;
1839;SDS011;920;48.944;9.148;2023-08-06T13:14:18;3.23;;;1.47;;
1839;SDS011;920;48.944;9.148;2023-08-06T13:16:45;2.80;;;2.17;;
1839;SDS011;920;48.944;9.148;2023-08-06T13:19:11;2.43;;;1.20;;
1839;SDS011;920;48.944;9.148;2023-08-06T13:21:58;2.20;;;1.47;;
1839;SDS011;920;48.944;9.148;2023-08-06T13:24:28;3.10;;;1.50;;
1839;SDS011;920;48.944;9.148;2023-08-06T13:26:54;3.20;;;1.50;;
1839;SDS011;920;48.944;9.148;2023-08-06T13:29:21;3.07;;;1.40;;
1839;SDS011;920;48.944;9.148;2023-08-06T13:31:48;2.30;;;1.30;;
1839;SDS011;920;48.944;9.148;2023-08-06T13:34:15;2.93;;;2.43;;
1839;SDS011;920;48.944;9.148;2023-08-06T13:36:41;2.40;;;1.20;;
1839;SDS011;920;48.944;9.148;2023-08-06T13:39:10;2.83;;;1.17;;
1839;SDS011;920;48.944;9.148;2023-08-06T13:41:37;2.47;;;1.00;;
1839;SDS011;920;48.944;9.148;2023-08-06T13:44:04;1.90;;;1.20;;
1839;SDS011;920;48.944;9.148;2023-08-06T13:46:31;1.60;;;0.90;;
1839;SDS011;920;48.944;9.148;2023-08-06T13:48:58;2.17;;;1.00;;
1839;SDS011;920;48.944;9.148;2023-08-06T13:51:25;2.60;;;0.90;;
1839;SDS011;920;48.944;9.148;2023-08-06T13:53:52;1.80;;;0.83;;
1839;SDS011;920;48.944;9.148;2023-08-06T13:56:20;2.40;;;0.80;;
1839;SDS011;920;48.944;9.148;2023-08-06T13:58:47;1.80;;;0.90;;
1839;SDS011;920;48.944;9.148;2023-08-06T14:01:16;13.47;;;6.43;;
1839;SDS011;920;48.944;9.148;2023-08-06T14:03:43;15.90;;;8.07;;
1839;SDS011;920;48.944;9.148;2023-08-06T14:06:10;3.93;;;2.13;;
1839;SDS011;920;48.944;9.148;2023-08-06T14:08:36;2.23;;;1.30;;
1839;SDS011;920;48.944;9.148;2023-08-06T14:11:03;2.03;;;1.10;;
1839;SDS011;920;48.944;9.148;2023-08-06T14:13:33;4.53;;;1.03;;
1839;SDS011;920;48.944;9.148;2023-08-06T14:15:59;1.90;;;1.00;;
1839;SDS011;920;48.944;9.148;2023-08-06T14:18:26;2.00;;;1.40;;
1839;SDS011;920;48.944;9.148;2023-08-06T14:20:53;1.60;;;0.90;;
1839;SDS011;920;48.944;9.148;2023-08-06T14:23:19;1.80;;;1.00;;
1839;SDS011;920;48.944;9.148;2023-08-06T14:25:46;3.30;;;1.10;;
1839;SDS011;920;48.944;9.148;2023-08-06T14:28:13;1.80;;;0.93;;
1839;SDS011;920;48.944;9.148;2023-08-06T14:30:41;2.20;;;0.90;;
1839;SDS011;920;48.944;9.148;2023-08-06T14:33:08;1.80;;;0.80;;
1839;SDS011;920;48.944;9.148;2023-08-06T14:35:35;1.80;;;1.10;;
1839;SDS011;920;48.944;9.148;2023-08-06T14:38:01;2.90;;;1.13;;
1839;SDS011;920;48.944;9.148;2023-08-06T14:40:28;2.00;;;1.00;;
1839;SDS011;920;48.944;9.148;2023-08-06T14:42:58;2.03;;;1.30;;
1839;SDS011;920;48.944;9.148;2023-08-06T14:45:26;2.50;;;1.20;;
1839;SDS011;920;48.944;9.148;2023-08-06T14:47:54;3.90;;;1.33;;
1839;SDS011;920;48.944;9.148;2023-08-06T14:50:21;2.27;;;1.10;;
1839;SDS011;920;48.944;9.148;2023-08-06T14:52:49;2.73;;;1.10;;
1839;SDS011;920;48.944;9.148;2023-08-06T14:55:17;2.20;;;1.30;;
1839;SDS011;920;48.944;9.148;2023-08-06T14:57:49;2.57;;;1.20;;
1839;SDS011;920;48.944;9.148;2023-08-06T15:00:16;2.13;;;1.30;;
1839;SDS011;920;48.944;9.148;2023-08-06T15:02:42;2.03;;;1.10;;
1839;SDS011;920;48.944;9.148;2023-08-06T15:05:10;2.57;;;1.00;;
1839;SDS011;920;48.944;9.148;2023-08-06T15:07:37;1.70;;;0.93;;
1839;SDS011;920;48.944;9.148;2023-08-06T15:10:04;2.30;;;1.00;;
1839;SDS011;920;48.944;9.148;2023-08-06T15:12:32;2.00;;;1.20;;
1839;SDS011;920;48.944;9.148;2023-08-06T15:14:59;2.60;;;1.20;;
1839;SDS011;920;48.944;9.148;2023-08-06T15:17:27;2.57;;;1.27;;
1839;SDS011;920;48.944;9.148;2023-08-06T15:19:55;2.00;;;1.00;;
1839;SDS011;920;48.944;9.148;2023-08-06T15:22:25;2.13;;;1.00;;
1839;SDS011;920;48.944;9.148;2023-08-06T15:24:52;2.20;;;1.40;;
1839;SDS011;920;48.944;9.148;2023-08-06T15:27:19;1.80;;;1.00;;
1839;SDS011;920;48.944;9.148;2023-08-06T15:29:46;2.23;;;1.00;;
1839;SDS011;920;48.944;9.148;2023-08-06T15:32:13;2.37;;;0.97;;
1839;SDS011;920;48.944;9.148;2023-08-06T15:34:40;2.33;;;1.07;;